createdAt,value
2023-03-30T00:01:02.617Z,15.30
2023-03-30T00:03:33.413Z,15.30
2023-03-30T00:06:05.503Z,15.30
2023-03-30T00:08:33.766Z,15.30
2023-03-30T00:11:02.585Z,15.30
2023-03-30T00:13:31.444Z,15.30
2023-03-30T00:15:59.795Z,15.40
2023-03-30T00:18:29.743Z,15.40
2023-03-30T00:20:59.690Z,15.40
2023-03-30T00:23:28.187Z,15.50
2023-03-30T00:25:56.757Z,15.50
2023-03-30T00:28:26.156Z,15.50
2023-03-30T00:30:55.104Z,15.60
2023-03-30T00:33:30.617Z,15.60
2023-03-30T00:36:09.236Z,15.60
2023-03-30T00:38:37.346Z,15.60
2023-03-30T00:41:07.161Z,15.60
2023-03-30T00:43:35.550Z,15.70
2023-03-30T00:46:03.528Z,15.60
2023-03-30T00:48:34.589Z,15.60
2023-03-30T00:51:07.384Z,15.60
2023-03-30T00:53:40.289Z,15.60
2023-03-30T00:56:11.560Z,15.60
2023-03-30T00:58:42.201Z,15.60
2023-03-30T01:01:13.878Z,15.60
2023-03-30T01:03:45.955Z,15.50
2023-03-30T01:06:18.009Z,15.50
2023-03-30T01:08:48.165Z,15.50
2023-03-30T01:11:16.010Z,15.50
2023-03-30T01:13:47.125Z,15.50
2023-03-30T01:16:27.888Z,15.50
2023-03-30T01:19:06.442Z,15.50
2023-03-30T01:22:08.313Z,15.40
2023-03-30T01:25:15.440Z,15.40
2023-03-30T01:28:19.870Z,15.40
2023-03-30T01:31:25.731Z,15.40
2023-03-30T01:34:36.378Z,15.40
2023-03-30T01:37:18.134Z,15.40
2023-03-30T01:39:56.209Z,15.50
2023-03-30T01:42:33.780Z,15.50
2023-03-30T01:45:11.146Z,15.60
2023-03-30T01:47:42.644Z,15.60
2023-03-30T01:50:15.332Z,15.60
2023-03-30T01:52:50.483Z,15.60
2023-03-30T01:55:24.438Z,15.60
2023-03-30T01:57:58.344Z,15.60
2023-03-30T02:00:27.791Z,15.60
2023-03-30T02:03:00.243Z,15.70
2023-03-30T02:05:31.742Z,15.70
2023-03-30T02:08:03.137Z,15.80
2023-03-30T02:10:35.652Z,15.90
2023-03-30T02:13:06.193Z,15.90
2023-03-30T02:15:38.290Z,16.00
2023-03-30T02:18:06.673Z,16.00
2023-03-30T02:20:36.372Z,16.10
2023-03-30T02:23:06.711Z,16.10
2023-03-30T02:25:38.534Z,16.20
2023-03-30T02:28:08.516Z,16.20
2023-03-30T02:30:39.885Z,16.30
2023-03-30T02:33:11.271Z,16.30
2023-03-30T02:36:00.946Z,16.30
2023-03-30T02:38:57.530Z,16.30
2023-03-30T02:41:44.486Z,16.30
2023-03-30T02:44:23.621Z,16.30
2023-03-30T02:47:07.783Z,16.30
2023-03-30T02:49:52.286Z,16.30
2023-03-30T02:52:33.857Z,16.30
2023-03-30T02:55:11.056Z,16.30
2023-03-30T02:58:04.590Z,16.30
2023-03-30T03:01:02.365Z,16.30
2023-03-30T03:03:48.521Z,16.30
2023-03-30T03:06:20.776Z,16.30
2023-03-30T03:08:55.729Z,16.20
2023-03-30T03:11:27.659Z,16.20
2023-03-30T03:13:57.292Z,16.30
2023-03-30T03:16:26.068Z,16.30
2023-03-30T03:19:08.035Z,16.30
2023-03-30T03:21:35.956Z,16.30
2023-03-30T03:24:05.271Z,16.30
2023-03-30T03:26:51.792Z,16.30
2023-03-30T03:29:24.077Z,16.30
2023-03-30T03:31:52.016Z,16.30
2023-03-30T03:34:22.076Z,16.30
2023-03-30T03:37:02.276Z,16.30
2023-03-30T03:39:32.978Z,16.30
2023-03-30T03:42:08.182Z,16.40
2023-03-30T03:44:44.363Z,16.40
2023-03-30T03:47:16.376Z,16.40
2023-03-30T03:49:45.363Z,16.40
2023-03-30T03:52:13.492Z,16.40
2023-03-30T03:54:41.517Z,16.50
2023-03-30T03:57:10.991Z,16.50
2023-03-30T03:59:39.016Z,16.50
2023-03-30T04:02:08.475Z,16.50
2023-03-30T04:04:36.402Z,16.50
2023-03-30T04:07:04.835Z,16.50
2023-03-30T04:09:32.823Z,16.50
2023-03-30T04:12:37.041Z,16.50
2023-03-30T04:15:13.549Z,16.50
2023-03-30T04:18:01.837Z,16.60
2023-03-30T04:20:49.209Z,16.60
2023-03-30T04:23:45.955Z,16.50
2023-03-30T04:26:19.879Z,16.50
2023-03-30T04:29:00.283Z,16.50
2023-03-30T04:31:42.145Z,16.60
2023-03-30T04:34:31.278Z,16.60
2023-03-30T04:37:24.053Z,16.60
2023-03-30T04:40:11.601Z,16.60
2023-03-30T04:43:07.012Z,16.60
2023-03-30T04:45:41.021Z,16.60
2023-03-30T04:48:42.416Z,16.60
2023-03-30T04:51:21.150Z,16.60
2023-03-30T04:54:08.754Z,16.60
2023-03-30T04:57:08.832Z,16.60
2023-03-30T04:59:47.700Z,16.60
2023-03-30T05:02:34.686Z,16.60
2023-03-30T05:05:20.766Z,16.50
2023-03-30T05:07:50.273Z,16.50
2023-03-30T05:10:44.080Z,16.60
2023-03-30T05:13:25.864Z,16.50
2023-03-30T05:16:23.687Z,16.50
2023-03-30T05:19:08.613Z,16.50
2023-03-30T05:21:36.488Z,16.50
2023-03-30T05:24:23.435Z,16.50
2023-03-30T05:27:11.298Z,16.50
2023-03-30T05:29:57.962Z,16.50
2023-03-30T05:32:29.264Z,16.50
2023-03-30T05:35:16.407Z,16.50
2023-03-30T05:38:12.624Z,16.50
2023-03-30T05:41:06.892Z,16.50
2023-03-30T05:44:02.460Z,16.50
2023-03-30T05:46:54.608Z,16.50
2023-03-30T05:49:54.799Z,16.50
2023-03-30T05:52:30.797Z,16.50
2023-03-30T05:55:04.955Z,16.50
2023-03-30T05:58:04.114Z,16.60
2023-03-30T06:00:48.206Z,16.60
2023-03-30T06:03:27.917Z,16.60
2023-03-30T06:05:56.038Z,16.60
2023-03-30T06:08:24.502Z,16.60
2023-03-30T06:10:58.977Z,16.60
2023-03-30T06:13:31.911Z,16.60
2023-03-30T06:16:03.039Z,16.60
2023-03-30T06:18:31.503Z,16.60
2023-03-30T06:21:07.505Z,16.60
2023-03-30T06:23:49.019Z,16.60
2023-03-30T06:26:21.522Z,16.70
2023-03-30T06:28:51.800Z,16.70
2023-03-30T06:31:20.221Z,16.70
2023-03-30T06:33:53.949Z,16.70
2023-03-30T06:36:22.088Z,16.70
2023-03-30T06:39:10.597Z,16.70
2023-03-30T06:41:38.568Z,16.70
2023-03-30T06:44:10.490Z,16.70
2023-03-30T06:46:40.709Z,16.70
2023-03-30T06:49:09.677Z,16.70
2023-03-30T06:51:47.196Z,16.70
2023-03-30T06:54:20.164Z,16.70
2023-03-30T06:56:55.098Z,16.80
2023-03-30T06:59:25.839Z,16.80
2023-03-30T07:02:23.150Z,16.80
2023-03-30T07:05:24.735Z,16.80
2023-03-30T07:08:07.928Z,16.90
2023-03-30T07:10:38.243Z,16.90
2023-03-30T07:13:08.986Z,16.90
2023-03-30T07:15:42.025Z,16.90
2023-03-30T07:18:10.229Z,17.00
2023-03-30T07:20:38.161Z,17.00
2023-03-30T07:23:22.199Z,17.00
2023-03-30T07:25:53.107Z,17.00
2023-03-30T07:28:27.224Z,17.00
2023-03-30T07:31:06.044Z,17.00
2023-03-30T07:33:37.301Z,17.10
2023-03-30T07:36:08.513Z,17.10
2023-03-30T07:38:38.446Z,17.10
2023-03-30T07:41:10.397Z,17.10
2023-03-30T07:43:40.633Z,17.10
2023-03-30T07:46:11.767Z,17.20
2023-03-30T07:48:43.095Z,17.30
2023-03-30T07:51:13.480Z,17.20
2023-03-30T07:53:55.540Z,17.40
2023-03-30T07:56:31.214Z,17.50
2023-03-30T07:59:01.799Z,17.60
2023-03-30T08:01:35.220Z,17.60
2023-03-30T08:04:16.809Z,17.70
2023-03-30T08:06:45.484Z,17.80
2023-03-30T08:09:14.567Z,17.90
2023-03-30T08:11:42.816Z,18.10
2023-03-30T08:14:10.951Z,18.10
2023-03-30T08:16:41.297Z,18.20
2023-03-30T08:19:09.223Z,18.20
2023-03-30T08:21:37.279Z,18.30
2023-03-30T08:24:05.982Z,18.40
2023-03-30T08:26:34.102Z,18.50
2023-03-30T08:29:02.268Z,18.60
2023-03-30T08:31:32.966Z,18.60
2023-03-30T08:34:03.826Z,18.70
2023-03-30T08:36:31.859Z,18.80
2023-03-30T08:39:00.256Z,18.90
2023-03-30T08:41:49.950Z,19.00
2023-03-30T08:44:26.993Z,19.00
2023-03-30T08:46:56.413Z,19.10
2023-03-30T08:49:27.606Z,19.10
2023-03-30T08:51:56.693Z,19.20
2023-03-30T08:54:25.827Z,19.20
2023-03-30T08:57:06.224Z,19.20
2023-03-30T08:59:44.154Z,19.30
2023-03-30T09:02:18.625Z,19.30
2023-03-30T09:05:01.599Z,19.30
2023-03-30T09:07:33.742Z,19.40
2023-03-30T09:10:01.747Z,19.40
2023-03-30T09:12:39.289Z,19.50
2023-03-30T09:15:14.326Z,19.60
2023-03-30T09:17:45.217Z,19.70
2023-03-30T09:20:21.382Z,19.80
2023-03-30T09:22:51.032Z,19.90
2023-03-30T09:25:24.268Z,19.90
2023-03-30T09:27:59.709Z,19.90
2023-03-30T09:30:35.554Z,19.90
2023-03-30T09:33:13.389Z,19.80
2023-03-30T09:35:51.379Z,20.00
2023-03-30T09:38:21.465Z,20.20
2023-03-30T09:41:07.692Z,20.30
2023-03-30T09:43:41.775Z,20.30
2023-03-30T09:46:10.275Z,20.20
2023-03-30T09:48:40.993Z,20.10
2023-03-30T09:51:23.089Z,20.00
2023-03-30T09:53:53.671Z,19.80
2023-03-30T09:56:27.847Z,19.60
2023-03-30T09:58:56.847Z,19.40
2023-03-30T10:01:38.584Z,19.20
2023-03-30T10:04:09.671Z,19.00
2023-03-30T10:06:46.170Z,18.80
2023-03-30T10:09:15.039Z,18.70
2023-03-30T10:11:46.274Z,18.40
2023-03-30T10:14:32.805Z,18.30
2023-03-30T10:17:01.165Z,18.10
2023-03-30T10:19:29.520Z,18.00
2023-03-30T10:22:04.435Z,18.00
2023-03-30T10:24:34.090Z,18.00
2023-03-30T10:27:11.286Z,17.90
2023-03-30T10:29:39.200Z,17.90
2023-03-30T10:32:13.082Z,17.70
2023-03-30T10:34:43.735Z,17.60
2023-03-30T10:37:16.510Z,17.50
2023-03-30T10:39:47.414Z,17.30
2023-03-30T10:42:18.721Z,17.30
2023-03-30T10:44:50.678Z,17.20
2023-03-30T10:47:34.736Z,17.10
2023-03-30T10:50:10.238Z,17.00
2023-03-30T10:52:58.538Z,16.90
2023-03-30T10:55:33.581Z,16.70
2023-03-30T10:58:11.708Z,16.60
2023-03-30T11:00:55.844Z,16.40
2023-03-30T11:03:27.185Z,16.30
2023-03-30T11:06:00.226Z,16.10
2023-03-30T11:08:33.898Z,16.00
2023-03-30T11:11:02.024Z,15.90
2023-03-30T11:13:34.985Z,15.70
2023-03-30T11:16:07.998Z,15.70
2023-03-30T11:18:42.564Z,15.60
2023-03-30T11:21:17.925Z,15.50
2023-03-30T11:23:52.383Z,15.40
2023-03-30T11:26:25.938Z,15.40
2023-03-30T11:29:01.888Z,15.30
2023-03-30T11:31:48.354Z,15.30
2023-03-30T11:34:25.950Z,15.30
2023-03-30T11:37:02.319Z,15.20
2023-03-30T11:39:34.936Z,15.20
2023-03-30T11:42:16.554Z,15.30
2023-03-30T11:44:44.669Z,15.40
2023-03-30T11:47:44.997Z,15.50
2023-03-30T11:50:23.791Z,15.70
2023-03-30T11:53:05.149Z,16.20
2023-03-30T11:55:57.581Z,16.80
2023-03-30T11:58:35.177Z,17.60
2023-03-30T12:01:28.318Z,18.30
2023-03-30T12:04:02.112Z,18.70
2023-03-30T12:06:33.489Z,19.10
2023-03-30T12:09:25.687Z,19.20
2023-03-30T12:12:03.285Z,19.20
2023-03-30T12:14:48.888Z,19.20
2023-03-30T12:17:33.164Z,19.20
2023-03-30T12:20:07.797Z,19.10
2023-03-30T12:22:41.823Z,19.00
2023-03-30T12:25:24.924Z,18.80
2023-03-30T12:27:59.895Z,18.60
2023-03-30T12:30:30.016Z,18.40
2023-03-30T12:33:00.593Z,18.20
2023-03-30T12:35:55.478Z,18.10
2023-03-30T12:38:25.522Z,17.90
2023-03-30T12:41:14.544Z,17.70
2023-03-30T12:44:04.083Z,17.70
2023-03-30T12:46:38.034Z,17.70
2023-03-30T12:49:12.939Z,17.80
2023-03-30T12:51:59.422Z,18.00
2023-03-30T12:55:05.649Z,18.10
2023-03-30T12:57:43.501Z,18.40
2023-03-30T13:00:37.073Z,18.70
2023-03-30T13:03:27.966Z,19.30
2023-03-30T13:06:02.139Z,19.80
2023-03-30T13:08:33.938Z,20.30
2023-03-30T13:11:12.712Z,20.80
2023-03-30T13:13:53.842Z,21.30
2023-03-30T13:16:49.854Z,21.80
2023-03-30T13:19:27.552Z,22.20
2023-03-30T13:22:04.895Z,22.50
2023-03-30T13:24:46.578Z,22.70
2023-03-30T13:27:27.168Z,22.90
2023-03-30T13:29:57.900Z,22.90
2023-03-30T13:32:47.915Z,23.00
2023-03-30T13:35:53.779Z,23.00
2023-03-30T13:38:44.729Z,23.20
2023-03-30T13:41:24.210Z,23.40
2023-03-30T13:44:28.501Z,23.60
2023-03-30T13:47:07.759Z,23.70
2023-03-30T13:49:49.573Z,23.80
2023-03-30T13:52:22.445Z,23.80
2023-03-30T13:54:50.798Z,23.90
2023-03-30T13:57:21.741Z,23.90
2023-03-30T13:59:54.437Z,24.00
2023-03-30T14:02:23.931Z,24.00
2023-03-30T14:04:54.049Z,23.90
2023-03-30T14:07:24.082Z,23.60
2023-03-30T14:10:13.724Z,23.30
2023-03-30T14:12:42.850Z,23.00
2023-03-30T14:15:19.550Z,22.90
2023-03-30T14:17:50.661Z,22.60
2023-03-30T14:20:36.613Z,22.30
2023-03-30T14:23:06.320Z,22.10
2023-03-30T14:25:39.004Z,21.80
2023-03-30T14:28:14.337Z,21.60
2023-03-30T14:30:50.907Z,21.30
2023-03-30T14:33:20.957Z,20.90
2023-03-30T14:35:52.938Z,20.50
2023-03-30T14:38:24.441Z,20.20
2023-03-30T14:40:54.183Z,19.90
2023-03-30T14:43:25.674Z,19.60
2023-03-30T14:45:54.696Z,19.30
2023-03-30T14:48:28.123Z,19.10
2023-03-30T14:50:57.702Z,19.00
2023-03-30T14:53:28.679Z,18.80
2023-03-30T14:55:59.624Z,18.70
2023-03-30T14:58:29.414Z,18.70
2023-03-30T15:00:59.630Z,18.90
2023-03-30T15:03:33.801Z,19.10
2023-03-30T15:06:07.615Z,19.30
2023-03-30T15:11:27.981Z,19.40
2023-03-30T15:13:58.636Z,19.60
2023-03-30T15:16:29.644Z,19.80
2023-03-30T15:19:04.331Z,20.00
2023-03-30T15:21:36.135Z,20.30
2023-03-30T15:24:08.020Z,20.50
2023-03-30T15:26:46.315Z,20.60
2023-03-30T15:29:16.228Z,20.80
2023-03-30T15:31:44.991Z,20.90
2023-03-30T15:34:17.063Z,21.00
2023-03-30T15:36:53.896Z,21.10
2023-03-30T15:39:23.721Z,21.00
2023-03-30T15:42:01.260Z,20.90
2023-03-30T15:44:30.301Z,20.70
2023-03-30T15:46:59.593Z,20.50
2023-03-30T15:49:33.530Z,20.40
2023-03-30T15:52:09.231Z,20.20
2023-03-30T15:54:40.621Z,20.10
2023-03-30T15:57:18.604Z,20.00
2023-03-30T15:59:50.584Z,19.80
2023-03-30T16:02:20.679Z,19.60
2023-03-30T16:04:50.477Z,19.50
2023-03-30T16:07:21.754Z,19.30
2023-03-30T16:09:50.279Z,19.20
2023-03-30T16:12:20.767Z,19.00
2023-03-30T16:14:49.389Z,18.90
2023-03-30T16:17:17.570Z,18.70
2023-03-30T16:19:45.693Z,18.70
2023-03-30T16:22:15.795Z,18.70
2023-03-30T16:24:45.621Z,18.70
2023-03-30T16:27:14.486Z,18.70
2023-03-30T16:29:42.816Z,18.70
2023-03-30T16:32:10.878Z,18.70
2023-03-30T16:34:41.035Z,18.70
2023-03-30T16:37:11.277Z,18.70
2023-03-30T16:39:39.333Z,18.80
2023-03-30T16:42:08.618Z,18.80
2023-03-30T16:44:36.829Z,18.90
2023-03-30T16:47:05.012Z,18.90
2023-03-30T16:49:32.982Z,18.80
2023-03-30T16:52:02.097Z,18.70
2023-03-30T16:54:31.972Z,18.60
2023-03-30T16:57:01.885Z,18.50
2023-03-30T16:59:32.875Z,18.40
2023-03-30T17:02:02.476Z,18.30
2023-03-30T17:04:30.412Z,18.20
2023-03-30T17:06:58.518Z,18.10
2023-03-30T17:09:27.176Z,18.00
2023-03-30T17:11:55.115Z,17.90
2023-03-30T17:14:24.377Z,17.80
2023-03-30T17:16:53.593Z,17.70
2023-03-30T17:19:21.743Z,17.70
2023-03-30T17:21:50.121Z,17.60
2023-03-30T17:24:18.736Z,17.50
2023-03-30T17:26:46.685Z,17.40
2023-03-30T17:29:14.625Z,17.40
2023-03-30T17:31:45.429Z,17.30
2023-03-30T17:34:15.615Z,17.30
2023-03-30T17:36:43.871Z,17.20
2023-03-30T17:39:15.525Z,17.10
2023-03-30T17:41:43.944Z,17.10
2023-03-30T17:44:11.801Z,17.10
2023-03-30T17:46:40.709Z,17.00
2023-03-30T17:49:18.176Z,17.00
2023-03-30T17:51:47.070Z,16.90
2023-03-30T17:54:15.654Z,16.90
2023-03-30T17:56:43.613Z,16.80
2023-03-30T17:59:12.276Z,16.80
2023-03-30T18:01:40.797Z,16.70
2023-03-30T18:04:09.286Z,16.70
2023-03-30T18:06:38.821Z,16.60
2023-03-30T18:09:14.750Z,16.60
2023-03-30T18:11:42.989Z,16.50
2023-03-30T18:14:11.046Z,16.50
2023-03-30T18:16:43.654Z,16.50
2023-03-30T18:19:12.679Z,16.40
2023-03-30T18:21:41.885Z,16.40
2023-03-30T18:24:09.989Z,16.40
2023-03-30T18:26:39.805Z,16.40
2023-03-30T18:29:19.789Z,16.40
2023-03-30T18:31:48.470Z,16.30
2023-03-30T18:34:17.038Z,16.30
2023-03-30T18:36:46.780Z,16.30
2023-03-30T18:39:18.596Z,16.30
2023-03-30T18:41:46.719Z,16.30
2023-03-30T18:44:14.926Z,16.30
2023-03-30T18:46:43.091Z,16.30
2023-03-30T18:49:13.542Z,16.30
2023-03-30T18:51:41.566Z,16.30
2023-03-30T18:54:10.847Z,16.30
2023-03-30T18:56:38.742Z,16.30
2023-03-30T18:59:06.765Z,16.30
2023-03-30T19:01:34.973Z,16.20
2023-03-30T19:04:03.070Z,16.20
2023-03-30T19:06:31.252Z,16.20
2023-03-30T19:08:59.385Z,16.20
2023-03-30T19:11:28.724Z,16.20
2023-03-30T19:14:00.411Z,16.20
2023-03-30T19:16:28.604Z,16.20
2023-03-30T19:18:56.596Z,16.10
2023-03-30T19:21:24.563Z,16.10
2023-03-30T19:23:52.781Z,16.10
2023-03-30T19:26:20.927Z,16.10
2023-03-30T19:28:50.655Z,16.10
2023-03-30T19:31:18.690Z,16.00
2023-03-30T19:33:46.835Z,16.00
2023-03-30T19:36:14.962Z,16.00
2023-03-30T19:38:43.979Z,16.00
2023-03-30T19:41:12.951Z,15.90
2023-03-30T19:43:41.881Z,16.00
2023-03-30T19:46:11.369Z,15.90
2023-03-30T19:48:39.291Z,15.90
2023-03-30T19:51:07.882Z,15.90
2023-03-30T19:53:37.251Z,16.00
2023-03-30T19:56:11.154Z,15.90
2023-03-30T19:58:39.928Z,15.90
2023-03-30T20:01:09.708Z,15.90
2023-03-30T20:03:39.354Z,15.90
2023-03-30T20:06:11.120Z,15.90
2023-03-30T20:08:40.122Z,15.90
2023-03-30T20:11:08.750Z,15.90
2023-03-30T20:13:37.641Z,15.80
2023-03-30T20:16:06.326Z,15.80
2023-03-30T20:18:35.921Z,15.80
2023-03-30T20:21:05.835Z,15.70
2023-03-30T20:23:33.981Z,15.70
2023-03-30T20:26:04.413Z,15.70
2023-03-30T20:28:33.005Z,15.70
2023-03-30T20:31:01.675Z,15.70
2023-03-30T20:33:30.714Z,15.70
2023-03-30T20:35:59.260Z,15.70
2023-03-30T20:38:29.095Z,15.60
2023-03-30T20:40:58.092Z,15.70
2023-03-30T20:43:26.944Z,15.60
2023-03-30T20:46:03.239Z,15.60
2023-03-30T20:48:33.624Z,15.60
2023-03-30T20:51:03.965Z,15.70
2023-03-30T20:53:34.711Z,15.60
2023-03-30T20:56:04.148Z,15.60
2023-03-30T20:58:32.419Z,15.60
2023-03-30T21:01:01.683Z,15.60
2023-03-30T21:03:30.104Z,15.60
2023-03-30T21:06:03.345Z,15.60
2023-03-30T21:08:34.966Z,15.60
2023-03-30T21:11:03.595Z,15.50
2023-03-30T21:13:31.587Z,15.50
2023-03-30T21:16:00.597Z,15.50
2023-03-30T21:18:29.033Z,15.50
2023-03-30T21:20:57.536Z,15.50
2023-03-30T21:23:26.554Z,15.50
2023-03-30T21:25:58.563Z,15.50
2023-03-30T21:28:28.424Z,15.50
2023-03-30T21:30:57.632Z,15.40
2023-03-30T21:33:26.746Z,15.40
2023-03-30T21:35:56.583Z,15.40
2023-03-30T21:38:26.189Z,15.40
2023-03-30T21:41:00.746Z,15.30
2023-03-30T21:43:30.284Z,15.30
2023-03-30T21:46:00.028Z,15.30
2023-03-30T21:48:30.693Z,15.30
2023-03-30T21:50:59.884Z,15.30
2023-03-30T21:53:28.380Z,15.30
2023-03-30T21:55:57.070Z,15.30
2023-03-30T21:58:27.249Z,15.20
2023-03-30T22:01:09.037Z,15.20
2023-03-30T22:03:40.107Z,15.20
2023-03-30T22:06:10.422Z,15.20
2023-03-30T22:08:38.613Z,15.20
2023-03-30T22:11:09.441Z,15.20
2023-03-30T22:13:39.230Z,15.20
2023-03-30T22:16:09.738Z,15.20
2023-03-30T22:18:37.915Z,15.20
2023-03-30T22:21:07.829Z,15.20
2023-03-30T22:23:36.278Z,15.20
2023-03-30T22:26:04.875Z,15.20
2023-03-30T22:28:33.028Z,15.10
2023-03-30T22:31:02.871Z,15.10
2023-03-30T22:33:31.044Z,15.10
2023-03-30T22:35:59.959Z,15.10
2023-03-30T22:38:27.877Z,15.10
2023-03-30T22:41:03.847Z,15.10
2023-03-30T22:43:33.817Z,15.00
2023-03-30T22:46:03.708Z,15.00
2023-03-30T22:48:32.150Z,15.00
2023-03-30T22:51:03.320Z,15.00
2023-03-30T22:53:31.930Z,14.90
2023-03-30T22:56:00.113Z,14.90
2023-03-30T22:58:28.039Z,14.90
2023-03-30T23:01:01.290Z,14.90
2023-03-30T23:03:30.969Z,14.80
2023-03-30T23:06:01.166Z,14.80
2023-03-30T23:08:31.003Z,14.80
2023-03-30T23:11:04.582Z,14.70
2023-03-30T23:13:33.511Z,14.70
2023-03-30T23:16:01.457Z,14.60
2023-03-30T23:18:30.910Z,14.60
2023-03-30T23:20:58.889Z,14.60
2023-03-30T23:23:27.242Z,14.60
2023-03-30T23:25:55.382Z,14.60
2023-03-30T23:28:23.286Z,14.60
2023-03-30T23:30:51.263Z,14.60
2023-03-30T23:33:19.116Z,14.50
2023-03-30T23:35:50.934Z,14.60
2023-03-30T23:38:18.938Z,14.60
2023-03-30T23:40:47.129Z,14.60
2023-03-30T23:43:14.998Z,14.60
2023-03-30T23:45:43.793Z,14.60
2023-03-30T23:48:11.935Z,14.60
2023-03-30T23:50:41.226Z,14.70
2023-03-30T23:53:10.715Z,14.60
2023-03-30T23:55:38.726Z,14.60
2023-03-30T23:58:06.820Z,14.60
